sensor_id;sensor_type;location;lat;lon;timestamp;temperature;humidity
32839;DHT22;19182;41.820;12.808;2023-04-28T00:01:52;8.90;99.90
32839;DHT22;19182;41.820;12.808;2023-04-28T00:04:18;8.90;99.90
32839;DHT22;19182;41.820;12.808;2023-04-28T00:06:44;8.80;99.90
32839;DHT22;19182;41.820;12.808;2023-04-28T00:09:10;8.80;99.90
32839;DHT22;19182;41.820;12.808;2023-04-28T00:11:36;8.80;99.90
32839;DHT22;19182;41.820;12.808;2023-04-28T00:14:03;8.60;99.90
32839;DHT22;19182;41.820;12.808;2023-04-28T00:16:29;8.70;99.90
32839;DHT22;19182;41.820;12.808;2023-04-28T00:18:54;8.90;99.90
32839;DHT22;19182;41.820;12.808;2023-04-28T00:21:20;8.80;99.90
32839;DHT22;19182;41.820;12.808;2023-04-28T00:23:46;8.80;99.90
32839;DHT22;19182;41.820;12.808;2023-04-28T00:26:12;8.70;99.90
32839;DHT22;19182;41.820;12.808;2023-04-28T00:28:38;8.70;99.90
32839;DHT22;19182;41.820;12.808;2023-04-28T00:31:09;8.70;99.90
32839;DHT22;19182;41.820;12.808;2023-04-28T00:33:37;8.60;99.90
32839;DHT22;19182;41.820;12.808;2023-04-28T00:36:03;8.60;99.90
32839;DHT22;19182;41.820;12.808;2023-04-28T00:38:29;8.40;99.90
32839;DHT22;19182;41.820;12.808;2023-04-28T00:40:54;8.30;99.90
32839;DHT22;19182;41.820;12.808;2023-04-28T00:43:21;8.40;99.90
32839;DHT22;19182;41.820;12.808;2023-04-28T00:45:48;8.40;99.90
32839;DHT22;19182;41.820;12.808;2023-04-28T00:48:14;8.40;99.90
32839;DHT22;19182;41.820;12.808;2023-04-28T00:50:41;8.40;99.90
32839;DHT22;19182;41.820;12.808;2023-04-28T00:53:08;8.40;99.90
32839;DHT22;19182;41.820;12.808;2023-04-28T00:55:34;8.40;99.90
32839;DHT22;19182;41.820;12.808;2023-04-28T00:58:01;8.50;99.90
32839;DHT22;19182;41.820;12.808;2023-04-28T01:00:27;8.50;99.90
32839;DHT22;19182;41.820;12.808;2023-04-28T01:02:53;8.50;99.90
32839;DHT22;19182;41.820;12.808;2023-04-28T01:05:19;8.40;99.90
32839;DHT22;19182;41.820;12.808;2023-04-28T01:07:45;8.40;99.90
32839;DHT22;19182;41.820;12.808;2023-04-28T01:10:11;8.40;99.90
32839;DHT22;19182;41.820;12.808;2023-04-28T01:12:37;8.40;99.90
32839;DHT22;19182;41.820;12.808;2023-04-28T01:15:03;8.40;99.90
32839;DHT22;19182;41.820;12.808;2023-04-28T01:17:28;8.30;99.90
32839;DHT22;19182;41.820;12.808;2023-04-28T01:19:54;8.20;99.90
32839;DHT22;19182;41.820;12.808;2023-04-28T01:22:20;8.20;99.90
32839;DHT22;19182;41.820;12.808;2023-04-28T01:24:45;8.20;99.90
32839;DHT22;19182;41.820;12.808;2023-04-28T01:27:11;8.10;99.90
32839;DHT22;19182;41.820;12.808;2023-04-28T01:29:37;8.10;99.90
32839;DHT22;19182;41.820;12.808;2023-04-28T01:32:03;8.00;99.90
32839;DHT22;19182;41.820;12.808;2023-04-28T01:34:28;7.90;99.90
32839;DHT22;19182;41.820;12.808;2023-04-28T01:36:54;7.90;99.90
32839;DHT22;19182;41.820;12.808;2023-04-28T01:39:20;7.90;99.90
32839;DHT22;19182;41.820;12.808;2023-04-28T01:41:46;7.90;99.90
32839;DHT22;19182;41.820;12.808;2023-04-28T01:44:12;7.90;99.90
32839;DHT22;19182;41.820;12.808;2023-04-28T01:46:38;7.90;99.90
32839;DHT22;19182;41.820;12.808;2023-04-28T01:49:03;7.70;99.90
32839;DHT22;19182;41.820;12.808;2023-04-28T01:51:29;7.80;99.90
32839;DHT22;19182;41.820;12.808;2023-04-28T01:53:55;7.90;99.90
32839;DHT22;19182;41.820;12.808;2023-04-28T01:56:21;8.00;99.90
32839;DHT22;19182;41.820;12.808;2023-04-28T01:58:47;8.00;99.90
32839;DHT22;19182;41.820;12.808;2023-04-28T02:01:12;7.90;99.90
32839;DHT22;19182;41.820;12.808;2023-04-28T02:03:38;7.70;99.90
32839;DHT22;19182;41.820;12.808;2023-04-28T02:06:04;7.80;99.90
32839;DHT22;19182;41.820;12.808;2023-04-28T02:08:29;7.80;99.90
32839;DHT22;19182;41.820;12.808;2023-04-28T02:10:56;7.70;99.90
32839;DHT22;19182;41.820;12.808;2023-04-28T02:13:22;7.60;99.90
32839;DHT22;19182;41.820;12.808;2023-04-28T02:15:48;7.60;99.90
32839;DHT22;19182;41.820;12.808;2023-04-28T02:18:14;7.70;99.90
32839;DHT22;19182;41.820;12.808;2023-04-28T02:20:40;7.70;99.90
32839;DHT22;19182;41.820;12.808;2023-04-28T02:23:06;7.70;99.90
32839;DHT22;19182;41.820;12.808;2023-04-28T02:25:32;7.70;99.90
32839;DHT22;19182;41.820;12.808;2023-04-28T02:27:57;7.80;99.90
32839;DHT22;19182;41.820;12.808;2023-04-28T02:30:23;7.70;99.90
32839;DHT22;19182;41.820;12.808;2023-04-28T02:32:49;7.80;99.90
32839;DHT22;19182;41.820;12.808;2023-04-28T02:35:15;7.70;99.90
32839;DHT22;19182;41.820;12.808;2023-04-28T02:37:40;7.70;99.90
32839;DHT22;19182;41.820;12.808;2023-04-28T02:40:06;7.60;99.90
32839;DHT22;19182;41.820;12.808;2023-04-28T02:42:32;7.60;99.90
32839;DHT22;19182;41.820;12.808;2023-04-28T02:44:58;7.60;99.90
32839;DHT22;19182;41.820;12.808;2023-04-28T02:47:24;7.50;99.90
32839;DHT22;19182;41.820;12.808;2023-04-28T02:49:49;7.50;99.90
32839;DHT22;19182;41.820;12.808;2023-04-28T02:52:15;7.50;99.90
32839;DHT22;19182;41.820;12.808;2023-04-28T02:54:41;7.70;99.90
32839;DHT22;19182;41.820;12.808;2023-04-28T02:57:06;7.70;99.90
32839;DHT22;19182;41.820;12.808;2023-04-28T02:59:32;7.60;99.90
32839;DHT22;19182;41.820;12.808;2023-04-28T03:01:58;7.50;99.90
32839;DHT22;19182;41.820;12.808;2023-04-28T03:04:23;7.40;99.90
32839;DHT22;19182;41.820;12.808;2023-04-28T03:06:49;7.60;99.90
32839;DHT22;19182;41.820;12.808;2023-04-28T03:09:15;7.60;99.90
32839;DHT22;19182;41.820;12.808;2023-04-28T03:11:41;7.70;99.90
32839;DHT22;19182;41.820;12.808;2023-04-28T03:14:06;7.70;99.90
32839;DHT22;19182;41.820;12.808;2023-04-28T03:16:32;7.70;99.90
32839;DHT22;19182;41.820;12.808;2023-04-28T03:18:58;7.60;99.90
32839;DHT22;19182;41.820;12.808;2023-04-28T03:21:24;7.70;99.90
32839;DHT22;19182;41.820;12.808;2023-04-28T03:23:52;7.70;99.90
32839;DHT22;19182;41.820;12.808;2023-04-28T03:26:18;7.70;99.90
32839;DHT22;19182;41.820;12.808;2023-04-28T03:28:44;7.60;99.90
32839;DHT22;19182;41.820;12.808;2023-04-28T03:31:09;7.50;99.90
32839;DHT22;19182;41.820;12.808;2023-04-28T03:33:35;7.50;99.90
32839;DHT22;19182;41.820;12.808;2023-04-28T03:36:01;7.30;99.90
32839;DHT22;19182;41.820;12.808;2023-04-28T03:38:26;7.20;99.90
32839;DHT22;19182;41.820;12.808;2023-04-28T03:40:52;7.20;99.90
32839;DHT22;19182;41.820;12.808;2023-04-28T03:43:18;7.10;99.90
32839;DHT22;19182;41.820;12.808;2023-04-28T03:45:44;7.20;99.90
32839;DHT22;19182;41.820;12.808;2023-04-28T03:48:09;7.20;99.90
32839;DHT22;19182;41.820;12.808;2023-04-28T03:50:35;7.20;99.90
32839;DHT22;19182;41.820;12.808;2023-04-28T03:53:01;7.20;99.90
32839;DHT22;19182;41.820;12.808;2023-04-28T03:55:26;7.20;99.90
32839;DHT22;19182;41.820;12.808;2023-04-28T03:57:52;7.20;99.90
32839;DHT22;19182;41.820;12.808;2023-04-28T04:00:18;7.20;99.90
32839;DHT22;19182;41.820;12.808;2023-04-28T04:02:44;7.20;99.90
32839;DHT22;19182;41.820;12.808;2023-04-28T04:05:10;7.20;99.90
32839;DHT22;19182;41.820;12.808;2023-04-28T04:07:35;7.10;99.90
32839;DHT22;19182;41.820;12.808;2023-04-28T04:10:01;7.10;99.90
32839;DHT22;19182;41.820;12.808;2023-04-28T04:12:27;7.10;99.90
32839;DHT22;19182;41.820;12.808;2023-04-28T04:14:52;7.10;99.90
32839;DHT22;19182;41.820;12.808;2023-04-28T04:17:18;7.00;99.90
32839;DHT22;19182;41.820;12.808;2023-04-28T04:19:44;7.10;99.90
32839;DHT22;19182;41.820;12.808;2023-04-28T04:22:09;7.10;99.90
32839;DHT22;19182;41.820;12.808;2023-04-28T04:24:35;7.20;99.90
32839;DHT22;19182;41.820;12.808;2023-04-28T04:27:01;6.90;99.90
32839;DHT22;19182;41.820;12.808;2023-04-28T04:29:26;6.80;99.90
32839;DHT22;19182;41.820;12.808;2023-04-28T04:31:53;7.00;99.90
32839;DHT22;19182;41.820;12.808;2023-04-28T04:34:19;7.00;99.90
32839;DHT22;19182;41.820;12.808;2023-04-28T04:36:44;7.10;99.90
32839;DHT22;19182;41.820;12.808;2023-04-28T04:39:11;7.10;99.90
32839;DHT22;19182;41.820;12.808;2023-04-28T04:41:37;7.00;99.90
32839;DHT22;19182;41.820;12.808;2023-04-28T04:44:04;7.00;99.90
32839;DHT22;19182;41.820;12.808;2023-04-28T04:46:30;7.10;99.90
32839;DHT22;19182;41.820;12.808;2023-04-28T04:48:56;7.10;99.90
32839;DHT22;19182;41.820;12.808;2023-04-28T04:51:22;7.20;99.90
32839;DHT22;19182;41.820;12.808;2023-04-28T04:53:48;7.30;99.90
32839;DHT22;19182;41.820;12.808;2023-04-28T04:56:15;7.30;99.90
32839;DHT22;19182;41.820;12.808;2023-04-28T04:58:42;7.30;99.90
32839;DHT22;19182;41.820;12.808;2023-04-28T05:01:10;7.40;99.90
32839;DHT22;19182;41.820;12.808;2023-04-28T05:03:35;7.60;99.90
32839;DHT22;19182;41.820;12.808;2023-04-28T05:06:02;7.70;99.90
32839;DHT22;19182;41.820;12.808;2023-04-28T05:08:28;7.80;99.90
32839;DHT22;19182;41.820;12.808;2023-04-28T05:10:54;8.00;99.90
32839;DHT22;19182;41.820;12.808;2023-04-28T05:13:20;8.20;99.90
32839;DHT22;19182;41.820;12.808;2023-04-28T05:15:46;8.50;99.90
32839;DHT22;19182;41.820;12.808;2023-04-28T05:18:12;8.50;99.90
32839;DHT22;19182;41.820;12.808;2023-04-28T05:20:39;8.60;99.90
32839;DHT22;19182;41.820;12.808;2023-04-28T05:23:06;8.80;99.90
32839;DHT22;19182;41.820;12.808;2023-04-28T05:25:32;9.00;99.90
32839;DHT22;19182;41.820;12.808;2023-04-28T05:27:58;9.10;99.90
32839;DHT22;19182;41.820;12.808;2023-04-28T05:30:27;9.30;99.90
32839;DHT22;19182;41.820;12.808;2023-04-28T05:32:53;9.60;99.90
32839;DHT22;19182;41.820;12.808;2023-04-28T05:35:21;9.90;99.90
32839;DHT22;19182;41.820;12.808;2023-04-28T05:37:47;10.20;99.90
32839;DHT22;19182;41.820;12.808;2023-04-28T05:40:13;10.50;99.90
32839;DHT22;19182;41.820;12.808;2023-04-28T05:42:39;10.70;99.90
32839;DHT22;19182;41.820;12.808;2023-04-28T05:45:05;10.90;99.90
32839;DHT22;19182;41.820;12.808;2023-04-28T05:47:31;11.10;99.90
32839;DHT22;19182;41.820;12.808;2023-04-28T05:49:57;11.30;99.90
32839;DHT22;19182;41.820;12.808;2023-04-28T05:52:22;11.50;99.90
32839;DHT22;19182;41.820;12.808;2023-04-28T05:54:49;11.70;99.90
32839;DHT22;19182;41.820;12.808;2023-04-28T05:57:16;12.10;99.90
32839;DHT22;19182;41.820;12.808;2023-04-28T05:59:42;12.30;99.90
32839;DHT22;19182;41.820;12.808;2023-04-28T06:02:08;12.50;99.90
32839;DHT22;19182;41.820;12.808;2023-04-28T06:04:33;12.70;99.90
32839;DHT22;19182;41.820;12.808;2023-04-28T06:06:59;13.10;99.90
32839;DHT22;19182;41.820;12.808;2023-04-28T06:09:25;13.20;99.90
32839;DHT22;19182;41.820;12.808;2023-04-28T06:11:51;13.50;99.90
32839;DHT22;19182;41.820;12.808;2023-04-28T06:14:16;13.60;99.90
32839;DHT22;19182;41.820;12.808;2023-04-28T06:16:42;13.90;99.90
32839;DHT22;19182;41.820;12.808;2023-04-28T06:19:08;14.00;99.90
32839;DHT22;19182;41.820;12.808;2023-04-28T06:21:34;14.10;99.90
32839;DHT22;19182;41.820;12.808;2023-04-28T06:24:01;14.40;99.90
32839;DHT22;19182;41.820;12.808;2023-04-28T06:26:27;14.80;99.90
32839;DHT22;19182;41.820;12.808;2023-04-28T06:28:53;15.00;99.90
32839;DHT22;19182;41.820;12.808;2023-04-28T06:31:19;15.70;99.90
32839;DHT22;19182;41.820;12.808;2023-04-28T06:33:44;15.80;99.90
32839;DHT22;19182;41.820;12.808;2023-04-28T06:36:10;16.30;99.90
32839;DHT22;19182;41.820;12.808;2023-04-28T06:38:41;16.70;99.90
32839;DHT22;19182;41.820;12.808;2023-04-28T06:41:08;17.60;99.90
32839;DHT22;19182;41.820;12.808;2023-04-28T06:43:34;17.60;99.90
32839;DHT22;19182;41.820;12.808;2023-04-28T06:45:59;18.20;99.90
32839;DHT22;19182;41.820;12.808;2023-04-28T06:48:25;18.40;99.90
32839;DHT22;19182;41.820;12.808;2023-04-28T06:50:53;18.00;99.90
32839;DHT22;19182;41.820;12.808;2023-04-28T06:53:19;17.90;99.90
32839;DHT22;19182;41.820;12.808;2023-04-28T06:55:45;17.80;99.90
32839;DHT22;19182;41.820;12.808;2023-04-28T06:58:11;17.60;99.90
32839;DHT22;19182;41.820;12.808;2023-04-28T07:00:36;17.80;99.90
32839;DHT22;19182;41.820;12.808;2023-04-28T07:03:03;17.60;99.90
32839;DHT22;19182;41.820;12.808;2023-04-28T07:05:31;15.30;99.90
32839;DHT22;19182;41.820;12.808;2023-04-28T07:07:57;17.50;99.90
32839;DHT22;19182;41.820;12.808;2023-04-28T07:10:23;17.80;99.90
32839;DHT22;19182;41.820;12.808;2023-04-28T07:12:49;17.80;99.90
32839;DHT22;19182;41.820;12.808;2023-04-28T07:15:16;17.70;99.90
32839;DHT22;19182;41.820;12.808;2023-04-28T07:17:44;17.80;99.90
32839;DHT22;19182;41.820;12.808;2023-04-28T07:20:13;18.10;99.90
32839;DHT22;19182;41.820;12.808;2023-04-28T07:22:39;18.30;99.90
32839;DHT22;19182;41.820;12.808;2023-04-28T07:25:04;18.30;99.90
32839;DHT22;19182;41.820;12.808;2023-04-28T07:27:30;18.30;99.90
32839;DHT22;19182;41.820;12.808;2023-04-28T07:29:58;18.40;99.90
32839;DHT22;19182;41.820;12.808;2023-04-28T07:32:23;18.50;99.90
32839;DHT22;19182;41.820;12.808;2023-04-28T07:34:49;18.30;99.90
32839;DHT22;19182;41.820;12.808;2023-04-28T07:37:15;18.30;99.90
32839;DHT22;19182;41.820;12.808;2023-04-28T07:39:41;18.50;99.90
32839;DHT22;19182;41.820;12.808;2023-04-28T07:42:07;18.80;99.90
32839;DHT22;19182;41.820;12.808;2023-04-28T07:44:32;19.10;99.90
32839;DHT22;19182;41.820;12.808;2023-04-28T07:46:59;19.30;99.90
32839;DHT22;19182;41.820;12.808;2023-04-28T07:49:29;19.50;99.90
32839;DHT22;19182;41.820;12.808;2023-04-28T07:51:55;19.50;99.90
32839;DHT22;19182;41.820;12.808;2023-04-28T07:54:21;19.50;99.90
32839;DHT22;19182;41.820;12.808;2023-04-28T07:56:47;19.60;99.90
32839;DHT22;19182;41.820;12.808;2023-04-28T07:59:13;19.70;99.90
32839;DHT22;19182;41.820;12.808;2023-04-28T08:01:39;19.80;99.90
32839;DHT22;19182;41.820;12.808;2023-04-28T08:04:05;20.10;99.90
32839;DHT22;19182;41.820;12.808;2023-04-28T08:06:31;20.30;96.70
32839;DHT22;19182;41.820;12.808;2023-04-28T08:08:58;20.00;96.70
32839;DHT22;19182;41.820;12.808;2023-04-28T08:11:24;20.00;97.90
32839;DHT22;19182;41.820;12.808;2023-04-28T08:13:51;20.20;96.80
32839;DHT22;19182;41.820;12.808;2023-04-28T08:16:16;20.50;94.70
32839;DHT22;19182;41.820;12.808;2023-04-28T08:18:42;20.70;93.50
32839;DHT22;19182;41.820;12.808;2023-04-28T08:21:08;20.70;93.40
32839;DHT22;19182;41.820;12.808;2023-04-28T08:23:34;20.60;92.30
32839;DHT22;19182;41.820;12.808;2023-04-28T08:26:00;21.00;92.40
32839;DHT22;19182;41.820;12.808;2023-04-28T08:28:26;20.90;90.70
32839;DHT22;19182;41.820;12.808;2023-04-28T08:30:52;21.10;91.00
32839;DHT22;19182;41.820;12.808;2023-04-28T08:33:20;20.90;90.00
32839;DHT22;19182;41.820;12.808;2023-04-28T08:35:51;21.10;89.50
32839;DHT22;19182;41.820;12.808;2023-04-28T08:38:17;21.30;87.50
32839;DHT22;19182;41.820;12.808;2023-04-28T08:40:44;21.40;89.10
32839;DHT22;19182;41.820;12.808;2023-04-28T08:43:10;21.80;85.70
32839;DHT22;19182;41.820;12.808;2023-04-28T08:45:42;22.00;88.70
32839;DHT22;19182;41.820;12.808;2023-04-28T08:48:20;22.60;87.70
32839;DHT22;19182;41.820;12.808;2023-04-28T08:50:53;22.80;84.10
32839;DHT22;19182;41.820;12.808;2023-04-28T08:53:23;22.50;81.00
32839;DHT22;19182;41.820;12.808;2023-04-28T08:55:56;22.50;86.30
32839;DHT22;19182;41.820;12.808;2023-04-28T08:58:26;22.60;83.00
32839;DHT22;19182;41.820;12.808;2023-04-28T09:00:55;22.50;80.30
32839;DHT22;19182;41.820;12.808;2023-04-28T09:03:22;22.60;77.20
32839;DHT22;19182;41.820;12.808;2023-04-28T09:05:48;22.90;74.90
32839;DHT22;19182;41.820;12.808;2023-04-28T09:08:14;23.00;71.80
32839;DHT22;19182;41.820;12.808;2023-04-28T09:10:40;22.80;68.80
32839;DHT22;19182;41.820;12.808;2023-04-28T09:13:06;22.40;68.40
32839;DHT22;19182;41.820;12.808;2023-04-28T09:15:40;22.60;68.90
32839;DHT22;19182;41.820;12.808;2023-04-28T09:18:06;22.80;69.40
32839;DHT22;19182;41.820;12.808;2023-04-28T09:20:33;23.30;70.90
32839;DHT22;19182;41.820;12.808;2023-04-28T09:23:20;23.30;67.00
32839;DHT22;19182;41.820;12.808;2023-04-28T09:26:03;23.40;67.20
32839;DHT22;19182;41.820;12.808;2023-04-28T09:28:30;23.40;66.80
32839;DHT22;19182;41.820;12.808;2023-04-28T09:30:56;23.10;65.20
32839;DHT22;19182;41.820;12.808;2023-04-28T09:33:22;23.10;66.40
32839;DHT22;19182;41.820;12.808;2023-04-28T09:35:48;23.30;64.00
32839;DHT22;19182;41.820;12.808;2023-04-28T09:38:15;23.70;68.00
32839;DHT22;19182;41.820;12.808;2023-04-28T09:41:01;24.10;65.70
32839;DHT22;19182;41.820;12.808;2023-04-28T09:45:56;23.50;66.50
32839;DHT22;19182;41.820;12.808;2023-04-28T09:48:36;23.90;65.70
32839;DHT22;19182;41.820;12.808;2023-04-28T09:51:06;24.00;67.30
32839;DHT22;19182;41.820;12.808;2023-04-28T09:53:33;24.10;66.40
32839;DHT22;19182;41.820;12.808;2023-04-28T09:56:00;23.90;67.70
32839;DHT22;19182;41.820;12.808;2023-04-28T09:58:28;24.10;69.50
32839;DHT22;19182;41.820;12.808;2023-04-28T10:00:56;24.00;66.70
32839;DHT22;19182;41.820;12.808;2023-04-28T10:03:27;24.20;69.00
32839;DHT22;19182;41.820;12.808;2023-04-28T10:05:53;24.40;68.00
32839;DHT22;19182;41.820;12.808;2023-04-28T10:08:21;24.30;68.00
32839;DHT22;19182;41.820;12.808;2023-04-28T10:10:51;24.10;67.70
32839;DHT22;19182;41.820;12.808;2023-04-28T10:13:21;24.00;71.20
32839;DHT22;19182;41.820;12.808;2023-04-28T10:15:48;24.60;68.90
32839;DHT22;19182;41.820;12.808;2023-04-28T10:18:14;25.20;69.30
32839;DHT22;19182;41.820;12.808;2023-04-28T10:20:54;25.70;70.80
32839;DHT22;19182;41.820;12.808;2023-04-28T10:26:17;26.30;68.90
32839;DHT22;19182;41.820;12.808;2023-04-28T10:28:50;26.50;70.00
32839;DHT22;19182;41.820;12.808;2023-04-28T10:31:19;26.60;70.00
32839;DHT22;19182;41.820;12.808;2023-04-28T10:33:46;26.90;68.40
32839;DHT22;19182;41.820;12.808;2023-04-28T10:36:47;27.20;66.00
32839;DHT22;19182;41.820;12.808;2023-04-28T10:39:15;27.40;64.80
32839;DHT22;19182;41.820;12.808;2023-04-28T10:41:41;27.40;64.40
32839;DHT22;19182;41.820;12.808;2023-04-28T10:47:04;27.20;64.10
32839;DHT22;19182;41.820;12.808;2023-04-28T10:55:29;26.80;64.00
32839;DHT22;19182;41.820;12.808;2023-04-28T11:00:50;27.30;63.70
32839;DHT22;19182;41.820;12.808;2023-04-28T11:06:29;27.30;63.90
32839;DHT22;19182;41.820;12.808;2023-04-28T11:12:02;27.40;64.50
32839;DHT22;19182;41.820;12.808;2023-04-28T11:17:05;27.50;63.70
32839;DHT22;19182;41.820;12.808;2023-04-28T11:22:00;28.10;63.80
32839;DHT22;19182;41.820;12.808;2023-04-28T11:24:27;27.70;63.30
32839;DHT22;19182;41.820;12.808;2023-04-28T11:26:54;27.60;63.10
32839;DHT22;19182;41.820;12.808;2023-04-28T11:29:49;27.60;63.90
32839;DHT22;19182;41.820;12.808;2023-04-28T11:32:15;27.50;63.20
32839;DHT22;19182;41.820;12.808;2023-04-28T11:34:42;27.20;65.20
32839;DHT22;19182;41.820;12.808;2023-04-28T11:37:15;26.70;64.40
32839;DHT22;19182;41.820;12.808;2023-04-28T11:39:41;26.60;65.30
32839;DHT22;19182;41.820;12.808;2023-04-28T11:42:11;26.90;68.00
32839;DHT22;19182;41.820;12.808;2023-04-28T11:44:39;27.10;65.60
32839;DHT22;19182;41.820;12.808;2023-04-28T11:47:06;27.10;67.40
32839;DHT22;19182;41.820;12.808;2023-04-28T11:49:44;27.20;66.40
32839;DHT22;19182;41.820;12.808;2023-04-28T11:52:12;27.40;66.60
32839;DHT22;19182;41.820;12.808;2023-04-28T11:54:38;27.20;65.40
32839;DHT22;19182;41.820;12.808;2023-04-28T11:57:19;27.30;66.10
32839;DHT22;19182;41.820;12.808;2023-04-28T11:59:47;27.70;67.30
32839;DHT22;19182;41.820;12.808;2023-04-28T12:02:13;27.10;71.20
32839;DHT22;19182;41.820;12.808;2023-04-28T12:04:40;26.60;66.60
32839;DHT22;19182;41.820;12.808;2023-04-28T12:07:07;26.40;64.00
32839;DHT22;19182;41.820;12.808;2023-04-28T12:09:47;26.00;65.90
32839;DHT22;19182;41.820;12.808;2023-04-28T12:12:15;26.30;67.10
32839;DHT22;19182;41.820;12.808;2023-04-28T12:14:59;25.00;67.40
32839;DHT22;19182;41.820;12.808;2023-04-28T12:17:27;24.50;67.80
32839;DHT22;19182;41.820;12.808;2023-04-28T12:20:03;24.60;68.60
32839;DHT22;19182;41.820;12.808;2023-04-28T12:22:41;24.70;67.10
32839;DHT22;19182;41.820;12.808;2023-04-28T12:25:12;24.50;66.20
32839;DHT22;19182;41.820;12.808;2023-04-28T12:27:38;24.80;69.10
32839;DHT22;19182;41.820;12.808;2023-04-28T12:32:45;24.30;63.70
32839;DHT22;19182;41.820;12.808;2023-04-28T12:35:12;23.80;66.10
32839;DHT22;19182;41.820;12.808;2023-04-28T12:37:40;23.70;68.30
32839;DHT22;19182;41.820;12.808;2023-04-28T12:40:07;23.60;66.60
32839;DHT22;19182;41.820;12.808;2023-04-28T12:42:34;23.60;66.90
32839;DHT22;19182;41.820;12.808;2023-04-28T12:45:00;23.50;68.50
32839;DHT22;19182;41.820;12.808;2023-04-28T12:47:26;23.70;69.70
32839;DHT22;19182;41.820;12.808;2023-04-28T12:49:52;23.80;66.10
32839;DHT22;19182;41.820;12.808;2023-04-28T12:52:20;23.80;68.10
32839;DHT22;19182;41.820;12.808;2023-04-28T12:54:47;24.20;69.70
32839;DHT22;19182;41.820;12.808;2023-04-28T12:57:17;24.70;64.80
32839;DHT22;19182;41.820;12.808;2023-04-28T12:59:44;24.80;65.70
32839;DHT22;19182;41.820;12.808;2023-04-28T13:02:11;24.90;64.90
32839;DHT22;19182;41.820;12.808;2023-04-28T13:04:40;24.90;65.20
32839;DHT22;19182;41.820;12.808;2023-04-28T13:07:08;25.30;65.80
32839;DHT22;19182;41.820;12.808;2023-04-28T13:09:34;25.60;62.90
32839;DHT22;19182;41.820;12.808;2023-04-28T13:12:02;26.00;66.60
32839;DHT22;19182;41.820;12.808;2023-04-28T13:14:29;26.30;62.30
32839;DHT22;19182;41.820;12.808;2023-04-28T13:16:56;25.70;62.40
32839;DHT22;19182;41.820;12.808;2023-04-28T13:19:23;25.40;61.30
32839;DHT22;19182;41.820;12.808;2023-04-28T13:21:49;25.10;62.10
32839;DHT22;19182;41.820;12.808;2023-04-28T13:24:15;24.60;63.50
32839;DHT22;19182;41.820;12.808;2023-04-28T13:26:42;24.10;64.80
32839;DHT22;19182;41.820;12.808;2023-04-28T13:29:11;23.60;64.90
32839;DHT22;19182;41.820;12.808;2023-04-28T13:31:36;23.60;68.00
32839;DHT22;19182;41.820;12.808;2023-04-28T13:34:02;23.70;66.30
32839;DHT22;19182;41.820;12.808;2023-04-28T13:36:30;23.60;68.60
32839;DHT22;19182;41.820;12.808;2023-04-28T13:39:00;23.40;68.40
32839;DHT22;19182;41.820;12.808;2023-04-28T13:41:26;23.40;70.60
32839;DHT22;19182;41.820;12.808;2023-04-28T13:43:53;23.60;71.10
32839;DHT22;19182;41.820;12.808;2023-04-28T13:46:19;23.40;69.90
32839;DHT22;19182;41.820;12.808;2023-04-28T13:48:48;23.60;70.60
32839;DHT22;19182;41.820;12.808;2023-04-28T13:51:16;23.40;70.50
32839;DHT22;19182;41.820;12.808;2023-04-28T13:53:42;23.50;71.80
32839;DHT22;19182;41.820;12.808;2023-04-28T13:56:08;23.40;69.50
32839;DHT22;19182;41.820;12.808;2023-04-28T13:58:33;23.40;71.40
32839;DHT22;19182;41.820;12.808;2023-04-28T14:00:59;23.30;70.10
32839;DHT22;19182;41.820;12.808;2023-04-28T14:03:25;23.20;72.00
32839;DHT22;19182;41.820;12.808;2023-04-28T14:05:53;23.20;70.40
32839;DHT22;19182;41.820;12.808;2023-04-28T14:08:20;23.20;69.30
32839;DHT22;19182;41.820;12.808;2023-04-28T14:10:47;22.90;68.30
32839;DHT22;19182;41.820;12.808;2023-04-28T14:13:13;22.90;66.70
32839;DHT22;19182;41.820;12.808;2023-04-28T14:15:39;22.60;70.60
32839;DHT22;19182;41.820;12.808;2023-04-28T14:18:07;22.70;70.00
32839;DHT22;19182;41.820;12.808;2023-04-28T14:20:34;22.40;66.60
32839;DHT22;19182;41.820;12.808;2023-04-28T14:23:00;22.20;67.70
32839;DHT22;19182;41.820;12.808;2023-04-28T14:25:26;22.10;71.70
32839;DHT22;19182;41.820;12.808;2023-04-28T14:27:52;22.10;72.30
32839;DHT22;19182;41.820;12.808;2023-04-28T14:30:19;22.20;73.50
32839;DHT22;19182;41.820;12.808;2023-04-28T14:32:48;22.30;74.00
32839;DHT22;19182;41.820;12.808;2023-04-28T14:35:14;22.30;74.10
32839;DHT22;19182;41.820;12.808;2023-04-28T14:37:40;22.10;76.10
32839;DHT22;19182;41.820;12.808;2023-04-28T14:40:08;22.00;74.20
32839;DHT22;19182;41.820;12.808;2023-04-28T14:42:35;22.10;75.20
32839;DHT22;19182;41.820;12.808;2023-04-28T14:45:10;22.20;75.50
32839;DHT22;19182;41.820;12.808;2023-04-28T14:47:37;22.10;74.40
32839;DHT22;19182;41.820;12.808;2023-04-28T14:50:03;22.10;76.60
32839;DHT22;19182;41.820;12.808;2023-04-28T14:52:30;22.10;74.40
32839;DHT22;19182;41.820;12.808;2023-04-28T14:54:57;22.20;74.30
32839;DHT22;19182;41.820;12.808;2023-04-28T14:57:23;22.40;73.90
32839;DHT22;19182;41.820;12.808;2023-04-28T14:59:50;22.50;74.00
32839;DHT22;19182;41.820;12.808;2023-04-28T15:02:16;22.20;72.40
32839;DHT22;19182;41.820;12.808;2023-04-28T15:04:43;22.20;71.90
32839;DHT22;19182;41.820;12.808;2023-04-28T15:07:11;22.30;74.00
32839;DHT22;19182;41.820;12.808;2023-04-28T15:09:37;22.20;73.30
32839;DHT22;19182;41.820;12.808;2023-04-28T15:12:02;22.10;72.60
32839;DHT22;19182;41.820;12.808;2023-04-28T15:14:28;22.10;74.10
32839;DHT22;19182;41.820;12.808;2023-04-28T15:16:55;22.10;74.40
32839;DHT22;19182;41.820;12.808;2023-04-28T15:19:21;22.20;73.50
32839;DHT22;19182;41.820;12.808;2023-04-28T15:21:47;22.20;70.80
32839;DHT22;19182;41.820;12.808;2023-04-28T15:24:14;22.00;73.30
32839;DHT22;19182;41.820;12.808;2023-04-28T15:26:40;21.90;71.70
32839;DHT22;19182;41.820;12.808;2023-04-28T15:29:08;21.80;73.20
32839;DHT22;19182;41.820;12.808;2023-04-28T15:31:37;21.50;72.80
32839;DHT22;19182;41.820;12.808;2023-04-28T15:34:04;21.50;72.30
32839;DHT22;19182;41.820;12.808;2023-04-28T15:36:30;21.40;70.80
32839;DHT22;19182;41.820;12.808;2023-04-28T15:38:56;21.30;70.20
32839;DHT22;19182;41.820;12.808;2023-04-28T15:41:23;21.00;72.90
32839;DHT22;19182;41.820;12.808;2023-04-28T15:43:49;21.00;73.90
32839;DHT22;19182;41.820;12.808;2023-04-28T15:46:15;22.60;74.10
32839;DHT22;19182;41.820;12.808;2023-04-28T15:48:42;21.00;71.10
32839;DHT22;19182;41.820;12.808;2023-04-28T15:51:09;20.80;72.10
32839;DHT22;19182;41.820;12.808;2023-04-28T15:53:35;20.70;72.20